Barkman, Texas
Current Conditions -  °F | °C
As of 5:53 PM on Monday 24 Nov 2014 (Local Time) from KTXK Reporting Station
Clear Clear  
Wind Chill: 50°   Ceiling: Unl
Heat Index: 50°   Visibility: 10mi
Dew Point: 30°   Wind: 3mph
Humidity: 46%   Direction: 220°SW
Pressure: 30.03"   Gusts: NA
Location:  33.474°N, 94.2882°W
Report Text: KTXK 242353Z 22003KT 10SM CLR 10/M01 A3003 RMK AO2 SLP168 T01001011 10161 20089 53010
Loading
Personal Weather Stations






























Interactive Weather Map New forecast layout! Learn more

10-Day Weather Forecast

Advertisements
Track Severe Weather on mobile